Los Alamitos Army Air Field
KSLI : now visible

Airfield :











YOU CAN JOIN US ON...

 
LOGIN :

Register | Disclaimer

   EN    FR    IT 

 









Legend :    VFR   Marginal VFR   IFR   Intensive IFR   Very Intensive IFR
Visi :
Ceiling :
>= 8 km
>= 3000ft
5 to 8 km
1000 to 3000 ft
1500m to 5 km
500 to 1000 ft
800 to 1500m
200 to 500 ft
< 800m
< 200 ft
Symbols :   Thunderstorms  Fog  Heavy snow  Heavy precipitations  Wind > 20 kt






- Airport Elevation : 32 ft


KSLI - Los Alamitos Army Air Field

CURRENT METAR :
  • 160558Z AUTO 00000KT 10SM CLR 08/M03 A3010 RMK AO2 SLP196 T00761027 10166 20070 52013 PNO $

EXPIRED METARs :
  • 160458Z AUTO 33004KT 10SM CLR 09/M03 A3009 RMK AO2 SLP193 T00871032 PNO $
  • 160358Z AUTO 00000KT 10SM CLR 10/M03 A3007 RMK AO2 SLP186 T01031027 PNO $

TAF TAF KSLI
Valid from the 16 at 05:00 until the 17 at 11:00 UTC


160503Z 1605/1711 VRB06KT 9999 FEW250 QNH3008INS TX19/1623Z TN06/1615Z



MET'MAP, your aeronautical weather chart ! - Copyright ORBIFLY December 2007 - Disclaimer

ORBIFLY MET'MAP TEAM :

Programming & Development : Alexandra Zaïnal
Concept & original design : Baudouin d'Aumeries
Assistance for programming : Marc-Olivier Méhu
Technical & hardware support : Manuel Goepfert

Contact : metmap@orbifly.com




SOURCES & CREDITS :

   NOAA       Earth
Advisory